sensor_id;sensor_type;location;lat;lon;timestamp;temperature;humidity
17146;DHT22;8688;54.444;18.444;2023-10-19T00:01:29;4.90;99.90
17146;DHT22;8688;54.444;18.444;2023-10-19T00:03:55;5.00;99.90
17146;DHT22;8688;54.444;18.444;2023-10-19T00:06:23;5.00;99.90
17146;DHT22;8688;54.444;18.444;2023-10-19T00:08:49;5.10;99.90
17146;DHT22;8688;54.444;18.444;2023-10-19T00:11:18;5.10;99.90
17146;DHT22;8688;54.444;18.444;2023-10-19T00:13:48;5.10;99.90
17146;DHT22;8688;54.444;18.444;2023-10-19T00:16:17;5.20;99.90
17146;DHT22;8688;54.444;18.444;2023-10-19T00:18:47;5.20;99.90
17146;DHT22;8688;54.444;18.444;2023-10-19T00:21:16;5.20;99.90
17146;DHT22;8688;54.444;18.444;2023-10-19T00:23:46;5.30;99.90
17146;DHT22;8688;54.444;18.444;2023-10-19T00:26:15;5.30;99.90
17146;DHT22;8688;54.444;18.444;2023-10-19T00:28:45;5.40;99.90
17146;DHT22;8688;54.444;18.444;2023-10-19T00:31:15;5.40;99.90
17146;DHT22;8688;54.444;18.444;2023-10-19T00:33:42;5.50;99.90
17146;DHT22;8688;54.444;18.444;2023-10-19T00:36:11;5.50;99.90
17146;DHT22;8688;54.444;18.444;2023-10-19T00:38:41;5.50;99.90
17146;DHT22;8688;54.444;18.444;2023-10-19T00:41:17;5.50;99.90
17146;DHT22;8688;54.444;18.444;2023-10-19T00:43:48;5.50;99.90
17146;DHT22;8688;54.444;18.444;2023-10-19T00:46:19;5.50;99.90
17146;DHT22;8688;54.444;18.444;2023-10-19T00:48:55;5.50;99.90
17146;DHT22;8688;54.444;18.444;2023-10-19T00:51:27;5.60;99.90
17146;DHT22;8688;54.444;18.444;2023-10-19T00:54:09;5.60;99.90
17146;DHT22;8688;54.444;18.444;2023-10-19T00:56:42;5.60;99.90
17146;DHT22;8688;54.444;18.444;2023-10-19T00:59:17;5.70;99.90
17146;DHT22;8688;54.444;18.444;2023-10-19T01:01:50;5.70;99.90
17146;DHT22;8688;54.444;18.444;2023-10-19T01:04:20;5.70;99.90
17146;DHT22;8688;54.444;18.444;2023-10-19T01:06:50;5.80;99.90
17146;DHT22;8688;54.444;18.444;2023-10-19T01:09:37;5.70;99.90
17146;DHT22;8688;54.444;18.444;2023-10-19T01:12:06;5.70;99.90
17146;DHT22;8688;54.444;18.444;2023-10-19T01:15:06;5.70;99.90
17146;DHT22;8688;54.444;18.444;2023-10-19T01:17:35;5.70;99.90
17146;DHT22;8688;54.444;18.444;2023-10-19T01:20:10;5.70;99.90
17146;DHT22;8688;54.444;18.444;2023-10-19T01:22:51;5.60;99.90
17146;DHT22;8688;54.444;18.444;2023-10-19T01:25:32;5.60;99.90
17146;DHT22;8688;54.444;18.444;2023-10-19T01:28:07;5.60;99.90
17146;DHT22;8688;54.444;18.444;2023-10-19T01:30:35;5.50;99.90
17146;DHT22;8688;54.444;18.444;2023-10-19T01:33:04;5.50;99.90
17146;DHT22;8688;54.444;18.444;2023-10-19T01:35:38;5.40;98.40
17146;DHT22;8688;54.444;18.444;2023-10-19T01:38:21;5.40;99.90
17146;DHT22;8688;54.444;18.444;2023-10-19T01:40:49;5.40;99.90
17146;DHT22;8688;54.444;18.444;2023-10-19T01:43:17;5.40;99.90
17146;DHT22;8688;54.444;18.444;2023-10-19T01:45:47;5.50;99.90
17146;DHT22;8688;54.444;18.444;2023-10-19T01:48:14;5.50;99.90
17146;DHT22;8688;54.444;18.444;2023-10-19T01:50:42;5.50;99.90
17146;DHT22;8688;54.444;18.444;2023-10-19T01:53:09;5.50;92.90
17146;DHT22;8688;54.444;18.444;2023-10-19T01:55:44;5.40;91.30
17146;DHT22;8688;54.444;18.444;2023-10-19T01:58:13;5.40;77.10
17146;DHT22;8688;54.444;18.444;2023-10-19T02:00:41;5.40;96.30
17146;DHT22;8688;54.444;18.444;2023-10-19T02:03:10;5.40;90.40
17146;DHT22;8688;54.444;18.444;2023-10-19T02:05:37;5.50;86.20
17146;DHT22;8688;54.444;18.444;2023-10-19T02:08:08;5.50;75.40
17146;DHT22;8688;54.444;18.444;2023-10-19T02:10:34;5.50;60.70
17146;DHT22;8688;54.444;18.444;2023-10-19T02:13:04;5.50;58.80
17146;DHT22;8688;54.444;18.444;2023-10-19T02:15:33;5.50;35.20
17146;DHT22;8688;54.444;18.444;2023-10-19T02:18:02;5.60;13.70
17146;DHT22;8688;54.444;18.444;2023-10-19T02:20:29;5.60;8.30
17146;DHT22;8688;54.444;18.444;2023-10-19T02:23:00;5.60;1.20
17146;DHT22;8688;54.444;18.444;2023-10-19T02:25:29;5.70;1.00
17146;DHT22;8688;54.444;18.444;2023-10-19T02:28:00;5.70;1.00
17146;DHT22;8688;54.444;18.444;2023-10-19T02:30:30;5.80;1.00
17146;DHT22;8688;54.444;18.444;2023-10-19T02:32:57;5.80;1.00
17146;DHT22;8688;54.444;18.444;2023-10-19T02:35:25;5.80;1.00
17146;DHT22;8688;54.444;18.444;2023-10-19T02:37:53;5.70;1.00
17146;DHT22;8688;54.444;18.444;2023-10-19T02:40:21;5.70;1.00
17146;DHT22;8688;54.444;18.444;2023-10-19T02:42:50;5.70;1.00
17146;DHT22;8688;54.444;18.444;2023-10-19T02:45:17;5.70;1.00
17146;DHT22;8688;54.444;18.444;2023-10-19T02:47:46;5.70;1.00
17146;DHT22;8688;54.444;18.444;2023-10-19T02:50:13;5.70;1.00
17146;DHT22;8688;54.444;18.444;2023-10-19T02:52:42;5.60;5.40
17146;DHT22;8688;54.444;18.444;2023-10-19T02:55:10;5.60;16.20
17146;DHT22;8688;54.444;18.444;2023-10-19T02:57:38;5.70;26.00
17146;DHT22;8688;54.444;18.444;2023-10-19T03:00:06;5.70;24.80
17146;DHT22;8688;54.444;18.444;2023-10-19T03:02:39;5.70;31.30
17146;DHT22;8688;54.444;18.444;2023-10-19T03:05:09;5.70;31.50
17146;DHT22;8688;54.444;18.444;2023-10-19T03:07:41;5.60;46.20
17146;DHT22;8688;54.444;18.444;2023-10-19T03:10:10;5.70;56.60
17146;DHT22;8688;54.444;18.444;2023-10-19T03:12:50;5.60;55.00
17146;DHT22;8688;54.444;18.444;2023-10-19T03:15:18;5.50;44.80
17146;DHT22;8688;54.444;18.444;2023-10-19T03:17:47;5.50;56.20
17146;DHT22;8688;54.444;18.444;2023-10-19T03:20:17;5.40;65.40
17146;DHT22;8688;54.444;18.444;2023-10-19T03:22:44;5.30;65.30
17146;DHT22;8688;54.444;18.444;2023-10-19T03:25:13;5.20;54.30
17146;DHT22;8688;54.444;18.444;2023-10-19T03:27:58;5.10;91.10
17146;DHT22;8688;54.444;18.444;2023-10-19T03:30:35;5.00;99.90
17146;DHT22;8688;54.444;18.444;2023-10-19T03:33:06;5.10;99.90
17146;DHT22;8688;54.444;18.444;2023-10-19T03:35:38;5.10;99.90
17146;DHT22;8688;54.444;18.444;2023-10-19T03:38:07;5.00;99.90
17146;DHT22;8688;54.444;18.444;2023-10-19T03:40:40;5.00;99.90
17146;DHT22;8688;54.444;18.444;2023-10-19T03:43:12;5.10;99.90
17146;DHT22;8688;54.444;18.444;2023-10-19T03:45:47;5.10;99.90
17146;DHT22;8688;54.444;18.444;2023-10-19T03:48:19;5.20;99.90
17146;DHT22;8688;54.444;18.444;2023-10-19T03:50:54;5.20;99.90
17146;DHT22;8688;54.444;18.444;2023-10-19T03:53:23;5.20;99.90
17146;DHT22;8688;54.444;18.444;2023-10-19T03:55:51;5.20;99.90
17146;DHT22;8688;54.444;18.444;2023-10-19T03:58:21;5.30;99.90
17146;DHT22;8688;54.444;18.444;2023-10-19T04:00:49;5.30;99.90
17146;DHT22;8688;54.444;18.444;2023-10-19T04:03:17;5.30;99.90
17146;DHT22;8688;54.444;18.444;2023-10-19T04:05:45;5.50;99.90
17146;DHT22;8688;54.444;18.444;2023-10-19T04:08:16;5.70;99.90
17146;DHT22;8688;54.444;18.444;2023-10-19T04:10:47;5.80;99.90
17146;DHT22;8688;54.444;18.444;2023-10-19T04:13:34;5.90;99.90
17146;DHT22;8688;54.444;18.444;2023-10-19T04:16:03;6.00;99.90
17146;DHT22;8688;54.444;18.444;2023-10-19T04:18:32;6.00;99.90
17146;DHT22;8688;54.444;18.444;2023-10-19T04:21:01;6.10;99.90
17146;DHT22;8688;54.444;18.444;2023-10-19T04:23:31;6.10;99.90
17146;DHT22;8688;54.444;18.444;2023-10-19T04:26:01;6.10;99.90
17146;DHT22;8688;54.444;18.444;2023-10-19T04:28:37;6.10;99.90
17146;DHT22;8688;54.444;18.444;2023-10-19T04:31:11;6.20;99.90
17146;DHT22;8688;54.444;18.444;2023-10-19T04:33:43;6.20;99.90
17146;DHT22;8688;54.444;18.444;2023-10-19T04:36:14;6.20;99.90
17146;DHT22;8688;54.444;18.444;2023-10-19T04:38:44;6.20;99.90
17146;DHT22;8688;54.444;18.444;2023-10-19T04:41:13;6.30;99.90
17146;DHT22;8688;54.444;18.444;2023-10-19T04:43:44;6.30;99.90
17146;DHT22;8688;54.444;18.444;2023-10-19T04:46:16;6.40;99.90
17146;DHT22;8688;54.444;18.444;2023-10-19T04:48:45;6.40;99.90
17146;DHT22;8688;54.444;18.444;2023-10-19T04:51:19;6.40;99.90
17146;DHT22;8688;54.444;18.444;2023-10-19T04:53:49;6.50;99.90
17146;DHT22;8688;54.444;18.444;2023-10-19T04:56:17;6.50;99.90
17146;DHT22;8688;54.444;18.444;2023-10-19T04:58:46;6.50;99.90
17146;DHT22;8688;54.444;18.444;2023-10-19T05:01:14;6.50;99.90
17146;DHT22;8688;54.444;18.444;2023-10-19T05:03:43;6.50;99.90
17146;DHT22;8688;54.444;18.444;2023-10-19T05:06:11;6.50;99.90
17146;DHT22;8688;54.444;18.444;2023-10-19T05:08:40;6.50;99.90
17146;DHT22;8688;54.444;18.444;2023-10-19T05:11:10;6.50;99.90
17146;DHT22;8688;54.444;18.444;2023-10-19T05:13:39;6.50;99.90
17146;DHT22;8688;54.444;18.444;2023-10-19T05:16:07;6.50;99.90
17146;DHT22;8688;54.444;18.444;2023-10-19T05:18:38;6.50;99.90
17146;DHT22;8688;54.444;18.444;2023-10-19T05:21:06;6.50;99.90
17146;DHT22;8688;54.444;18.444;2023-10-19T05:23:36;6.50;99.90
17146;DHT22;8688;54.444;18.444;2023-10-19T05:26:04;6.50;99.90
17146;DHT22;8688;54.444;18.444;2023-10-19T05:28:34;6.50;99.90
17146;DHT22;8688;54.444;18.444;2023-10-19T05:31:02;6.50;99.90
17146;DHT22;8688;54.444;18.444;2023-10-19T05:33:31;6.60;99.90
17146;DHT22;8688;54.444;18.444;2023-10-19T05:36:09;6.60;99.90
17146;DHT22;8688;54.444;18.444;2023-10-19T05:38:43;6.50;99.90
17146;DHT22;8688;54.444;18.444;2023-10-19T05:41:14;6.60;99.90
17146;DHT22;8688;54.444;18.444;2023-10-19T05:43:44;6.60;99.90
17146;DHT22;8688;54.444;18.444;2023-10-19T05:46:13;6.60;99.90
17146;DHT22;8688;54.444;18.444;2023-10-19T05:48:45;6.60;99.90
17146;DHT22;8688;54.444;18.444;2023-10-19T05:51:15;6.60;99.90
17146;DHT22;8688;54.444;18.444;2023-10-19T05:53:43;6.60;99.90
17146;DHT22;8688;54.444;18.444;2023-10-19T05:56:11;6.60;99.90
17146;DHT22;8688;54.444;18.444;2023-10-19T05:58:43;6.70;99.90
17146;DHT22;8688;54.444;18.444;2023-10-19T06:01:17;6.70;99.90
17146;DHT22;8688;54.444;18.444;2023-10-19T06:03:47;6.70;99.90
17146;DHT22;8688;54.444;18.444;2023-10-19T06:06:15;6.70;99.90
17146;DHT22;8688;54.444;18.444;2023-10-19T06:08:47;6.70;99.90
17146;DHT22;8688;54.444;18.444;2023-10-19T06:11:19;6.80;99.90
17146;DHT22;8688;54.444;18.444;2023-10-19T06:13:50;6.70;99.90
17146;DHT22;8688;54.444;18.444;2023-10-19T06:16:20;6.80;99.90
17146;DHT22;8688;54.444;18.444;2023-10-19T06:18:48;6.80;99.90
17146;DHT22;8688;54.444;18.444;2023-10-19T06:21:20;6.80;99.90
17146;DHT22;8688;54.444;18.444;2023-10-19T06:23:51;6.80;99.90
17146;DHT22;8688;54.444;18.444;2023-10-19T06:26:21;6.80;99.90
17146;DHT22;8688;54.444;18.444;2023-10-19T06:28:53;6.80;99.90
17146;DHT22;8688;54.444;18.444;2023-10-19T06:31:26;6.90;99.90
17146;DHT22;8688;54.444;18.444;2023-10-19T06:33:55;6.80;99.90
17146;DHT22;8688;54.444;18.444;2023-10-19T06:36:27;6.90;99.90
17146;DHT22;8688;54.444;18.444;2023-10-19T06:38:58;6.80;99.90
17146;DHT22;8688;54.444;18.444;2023-10-19T06:41:34;6.80;99.90
17146;DHT22;8688;54.444;18.444;2023-10-19T06:44:05;6.80;99.90
17146;DHT22;8688;54.444;18.444;2023-10-19T06:46:33;6.80;99.90
17146;DHT22;8688;54.444;18.444;2023-10-19T06:49:07;6.80;99.90
17146;DHT22;8688;54.444;18.444;2023-10-19T06:51:35;6.80;99.90
17146;DHT22;8688;54.444;18.444;2023-10-19T06:54:04;6.90;99.90
17146;DHT22;8688;54.444;18.444;2023-10-19T06:56:34;6.90;99.90
17146;DHT22;8688;54.444;18.444;2023-10-19T06:59:05;6.90;99.90
17146;DHT22;8688;54.444;18.444;2023-10-19T07:01:34;6.90;99.90
17146;DHT22;8688;54.444;18.444;2023-10-19T07:04:05;6.90;99.90
17146;DHT22;8688;54.444;18.444;2023-10-19T07:06:34;6.90;99.90
17146;DHT22;8688;54.444;18.444;2023-10-19T07:09:04;6.90;99.90
17146;DHT22;8688;54.444;18.444;2023-10-19T07:11:36;6.90;99.90
17146;DHT22;8688;54.444;18.444;2023-10-19T07:14:06;6.90;99.90
17146;DHT22;8688;54.444;18.444;2023-10-19T07:16:36;6.80;99.90
17146;DHT22;8688;54.444;18.444;2023-10-19T07:19:04;6.80;99.90
17146;DHT22;8688;54.444;18.444;2023-10-19T07:21:32;6.90;99.90
17146;DHT22;8688;54.444;18.444;2023-10-19T07:24:03;6.90;99.90
17146;DHT22;8688;54.444;18.444;2023-10-19T07:26:35;6.80;99.90
17146;DHT22;8688;54.444;18.444;2023-10-19T07:29:11;6.80;99.90
17146;DHT22;8688;54.444;18.444;2023-10-19T07:31:41;6.80;99.90
17146;DHT22;8688;54.444;18.444;2023-10-19T07:34:09;6.80;99.90
17146;DHT22;8688;54.444;18.444;2023-10-19T07:36:41;6.80;99.90
17146;DHT22;8688;54.444;18.444;2023-10-19T07:39:12;6.90;99.90
17146;DHT22;8688;54.444;18.444;2023-10-19T07:41:45;6.90;99.90
17146;DHT22;8688;54.444;18.444;2023-10-19T07:44:17;6.80;99.90
17146;DHT22;8688;54.444;18.444;2023-10-19T07:46:45;6.80;99.90
17146;DHT22;8688;54.444;18.444;2023-10-19T07:49:13;6.90;99.90
17146;DHT22;8688;54.444;18.444;2023-10-19T07:51:45;6.90;99.90
17146;DHT22;8688;54.444;18.444;2023-10-19T07:54:14;6.90;99.90
17146;DHT22;8688;54.444;18.444;2023-10-19T07:56:42;6.90;99.90
17146;DHT22;8688;54.444;18.444;2023-10-19T07:59:10;6.90;99.90
17146;DHT22;8688;54.444;18.444;2023-10-19T08:01:42;6.90;99.90
17146;DHT22;8688;54.444;18.444;2023-10-19T08:04:10;6.90;99.90
17146;DHT22;8688;54.444;18.444;2023-10-19T08:06:38;6.90;99.90
17146;DHT22;8688;54.444;18.444;2023-10-19T08:09:07;7.00;99.90
17146;DHT22;8688;54.444;18.444;2023-10-19T08:11:37;6.90;99.90
17146;DHT22;8688;54.444;18.444;2023-10-19T08:14:09;6.90;99.90
17146;DHT22;8688;54.444;18.444;2023-10-19T08:16:37;7.00;99.90
17146;DHT22;8688;54.444;18.444;2023-10-19T08:19:07;7.00;99.90
17146;DHT22;8688;54.444;18.444;2023-10-19T08:21:38;7.00;99.90
17146;DHT22;8688;54.444;18.444;2023-10-19T08:24:06;7.00;99.90
17146;DHT22;8688;54.444;18.444;2023-10-19T08:26:40;7.00;99.90
17146;DHT22;8688;54.444;18.444;2023-10-19T08:29:08;7.10;99.90
17146;DHT22;8688;54.444;18.444;2023-10-19T08:31:40;7.10;99.90
17146;DHT22;8688;54.444;18.444;2023-10-19T08:34:10;7.10;99.90
17146;DHT22;8688;54.444;18.444;2023-10-19T08:36:42;7.10;98.80
17146;DHT22;8688;54.444;18.444;2023-10-19T08:39:10;7.10;99.90
17146;DHT22;8688;54.444;18.444;2023-10-19T08:41:40;7.20;99.90
17146;DHT22;8688;54.444;18.444;2023-10-19T08:44:09;7.30;99.90
17146;DHT22;8688;54.444;18.444;2023-10-19T08:46:40;7.50;99.90
17146;DHT22;8688;54.444;18.444;2023-10-19T08:49:14;7.60;63.60
17146;DHT22;8688;54.444;18.444;2023-10-19T08:51:46;7.70;76.70
17146;DHT22;8688;54.444;18.444;2023-10-19T08:54:16;7.70;27.30
17146;DHT22;8688;54.444;18.444;2023-10-19T08:56:44;7.70;17.80
17146;DHT22;8688;54.444;18.444;2023-10-19T08:59:15;7.70;18.00
17146;DHT22;8688;54.444;18.444;2023-10-19T09:01:44;7.60;22.80
17146;DHT22;8688;54.444;18.444;2023-10-19T09:04:13;7.70;7.90
17146;DHT22;8688;54.444;18.444;2023-10-19T09:06:43;7.60;1.00
17146;DHT22;8688;54.444;18.444;2023-10-19T09:09:15;7.70;1.00
17146;DHT22;8688;54.444;18.444;2023-10-19T09:11:48;7.60;1.00
17146;DHT22;8688;54.444;18.444;2023-10-19T09:14:31;7.60;1.00
17146;DHT22;8688;54.444;18.444;2023-10-19T09:17:00;7.70;1.00
17146;DHT22;8688;54.444;18.444;2023-10-19T09:19:42;7.60;1.00
17146;DHT22;8688;54.444;18.444;2023-10-19T09:22:11;7.70;1.00
17146;DHT22;8688;54.444;18.444;2023-10-19T09:24:49;7.80;1.00
17146;DHT22;8688;54.444;18.444;2023-10-19T09:27:22;7.80;1.00
17146;DHT22;8688;54.444;18.444;2023-10-19T09:29:56;7.80;1.00
17146;DHT22;8688;54.444;18.444;2023-10-19T09:32:25;7.70;1.00
17146;DHT22;8688;54.444;18.444;2023-10-19T09:35:03;7.60;1.00
17146;DHT22;8688;54.444;18.444;2023-10-19T09:37:36;7.60;1.00
17146;DHT22;8688;54.444;18.444;2023-10-19T09:40:05;7.60;1.00
17146;DHT22;8688;54.444;18.444;2023-10-19T09:42:44;7.50;1.00
17146;DHT22;8688;54.444;18.444;2023-10-19T09:45:17;7.50;1.00
17146;DHT22;8688;54.444;18.444;2023-10-19T09:47:50;7.40;1.00
17146;DHT22;8688;54.444;18.444;2023-10-19T09:50:21;7.30;1.00
17146;DHT22;8688;54.444;18.444;2023-10-19T09:52:50;7.30;2.30
17146;DHT22;8688;54.444;18.444;2023-10-19T09:55:24;7.40;6.30
17146;DHT22;8688;54.444;18.444;2023-10-19T09:58:02;7.40;1.00
17146;DHT22;8688;54.444;18.444;2023-10-19T10:00:32;7.40;1.00
17146;DHT22;8688;54.444;18.444;2023-10-19T10:03:01;7.30;1.00
17146;DHT22;8688;54.444;18.444;2023-10-19T10:05:47;7.30;1.90
17146;DHT22;8688;54.444;18.444;2023-10-19T10:08:44;7.30;1.00
17146;DHT22;8688;54.444;18.444;2023-10-19T10:11:19;7.30;1.00
17146;DHT22;8688;54.444;18.444;2023-10-19T10:13:48;7.20;1.00
17146;DHT22;8688;54.444;18.444;2023-10-19T10:16:22;7.20;7.00
17146;DHT22;8688;54.444;18.444;2023-10-19T10:18:54;7.20;3.60
17146;DHT22;8688;54.444;18.444;2023-10-19T10:21:27;7.20;20.50
17146;DHT22;8688;54.444;18.444;2023-10-19T10:23:57;7.30;22.70
17146;DHT22;8688;54.444;18.444;2023-10-19T10:26:28;7.20;12.90
17146;DHT22;8688;54.444;18.444;2023-10-19T10:29:10;7.20;11.80
17146;DHT22;8688;54.444;18.444;2023-10-19T10:31:42;7.20;1.00
17146;DHT22;8688;54.444;18.444;2023-10-19T10:34:11;7.10;1.00
17146;DHT22;8688;54.444;18.444;2023-10-19T10:37:01;7.10;4.20
17146;DHT22;8688;54.444;18.444;2023-10-19T10:39:30;7.20;5.40
17146;DHT22;8688;54.444;18.444;2023-10-19T10:42:02;7.20;1.00
17146;DHT22;8688;54.444;18.444;2023-10-19T10:44:38;7.20;1.00
17146;DHT22;8688;54.444;18.444;2023-10-19T10:47:07;7.30;1.00
17146;DHT22;8688;54.444;18.444;2023-10-19T10:49:49;7.40;1.00
17146;DHT22;8688;54.444;18.444;2023-10-19T10:52:26;7.40;1.00
17146;DHT22;8688;54.444;18.444;2023-10-19T10:54:57;7.40;1.00
17146;DHT22;8688;54.444;18.444;2023-10-19T10:57:33;7.40;1.00
17146;DHT22;8688;54.444;18.444;2023-10-19T11:00:07;7.50;1.00
17146;DHT22;8688;54.444;18.444;2023-10-19T11:02:38;7.40;1.00
17146;DHT22;8688;54.444;18.444;2023-10-19T11:05:10;7.50;1.00
17146;DHT22;8688;54.444;18.444;2023-10-19T11:08:08;7.50;1.00
17146;DHT22;8688;54.444;18.444;2023-10-19T11:10:43;7.50;1.00
17146;DHT22;8688;54.444;18.444;2023-10-19T11:13:13;7.50;1.00
17146;DHT22;8688;54.444;18.444;2023-10-19T11:15:49;7.50;1.00
17146;DHT22;8688;54.444;18.444;2023-10-19T11:18:32;7.40;1.00
17146;DHT22;8688;54.444;18.444;2023-10-19T11:21:02;7.50;1.00
17146;DHT22;8688;54.444;18.444;2023-10-19T11:23:38;7.50;1.00
17146;DHT22;8688;54.444;18.444;2023-10-19T11:26:07;7.60;1.00
17146;DHT22;8688;54.444;18.444;2023-10-19T11:28:36;7.60;1.00
17146;DHT22;8688;54.444;18.444;2023-10-19T11:31:17;7.60;1.00
17146;DHT22;8688;54.444;18.444;2023-10-19T11:33:46;7.50;1.00
17146;DHT22;8688;54.444;18.444;2023-10-19T11:36:16;7.50;1.00
17146;DHT22;8688;54.444;18.444;2023-10-19T11:38:50;7.50;1.00
17146;DHT22;8688;54.444;18.444;2023-10-19T11:41:18;7.40;1.00
17146;DHT22;8688;54.444;18.444;2023-10-19T11:43:48;7.40;1.00
17146;DHT22;8688;54.444;18.444;2023-10-19T11:46:16;7.40;1.00
17146;DHT22;8688;54.444;18.444;2023-10-19T11:48:52;7.30;1.00
17146;DHT22;8688;54.444;18.444;2023-10-19T11:51:24;7.40;1.00
17146;DHT22;8688;54.444;18.444;2023-10-19T11:53:54;7.40;1.00
17146;DHT22;8688;54.444;18.444;2023-10-19T11:56:22;7.60;1.00
17146;DHT22;8688;54.444;18.444;2023-10-19T11:58:53;7.60;1.00
17146;DHT22;8688;54.444;18.444;2023-10-19T12:01:24;7.60;1.00
17146;DHT22;8688;54.444;18.444;2023-10-19T12:03:55;7.50;1.00
17146;DHT22;8688;54.444;18.444;2023-10-19T12:06:24;7.50;1.00
17146;DHT22;8688;54.444;18.444;2023-10-19T12:08:54;7.50;1.00
17146;DHT22;8688;54.444;18.444;2023-10-19T12:11:25;7.60;1.00
17146;DHT22;8688;54.444;18.444;2023-10-19T12:13:53;7.50;1.00
17146;DHT22;8688;54.444;18.444;2023-10-19T12:16:26;7.50;1.00
17146;DHT22;8688;54.444;18.444;2023-10-19T12:18:56;7.50;1.00
17146;DHT22;8688;54.444;18.444;2023-10-19T12:21:24;7.40;1.00
17146;DHT22;8688;54.444;18.444;2023-10-19T12:23:55;7.40;1.00
17146;DHT22;8688;54.444;18.444;2023-10-19T12:26:25;7.40;1.00
17146;DHT22;8688;54.444;18.444;2023-10-19T12:28:56;7.30;1.00
17146;DHT22;8688;54.444;18.444;2023-10-19T12:31:24;7.40;1.00
17146;DHT22;8688;54.444;18.444;2023-10-19T12:33:52;7.40;1.00
17146;DHT22;8688;54.444;18.444;2023-10-19T12:36:20;7.40;1.00
17146;DHT22;8688;54.444;18.444;2023-10-19T12:38:58;7.40;1.00
17146;DHT22;8688;54.444;18.444;2023-10-19T12:41:27;7.40;1.00
17146;DHT22;8688;54.444;18.444;2023-10-19T12:43:56;7.40;1.00
17146;DHT22;8688;54.444;18.444;2023-10-19T12:46:25;7.50;1.00
17146;DHT22;8688;54.444;18.444;2023-10-19T12:48:54;7.50;1.00
17146;DHT22;8688;54.444;18.444;2023-10-19T12:51:22;7.40;1.00
17146;DHT22;8688;54.444;18.444;2023-10-19T12:53:50;7.30;1.00
17146;DHT22;8688;54.444;18.444;2023-10-19T12:56:20;7.30;1.00
17146;DHT22;8688;54.444;18.444;2023-10-19T12:58:50;7.30;1.00
17146;DHT22;8688;54.444;18.444;2023-10-19T13:01:18;7.30;1.00
17146;DHT22;8688;54.444;18.444;2023-10-19T13:03:47;7.30;1.00
17146;DHT22;8688;54.444;18.444;2023-10-19T13:06:17;7.20;1.00
17146;DHT22;8688;54.444;18.444;2023-10-19T13:08:46;7.20;1.00
17146;DHT22;8688;54.444;18.444;2023-10-19T13:11:15;7.20;1.00
17146;DHT22;8688;54.444;18.444;2023-10-19T13:13:44;7.10;1.00
17146;DHT22;8688;54.444;18.444;2023-10-19T13:16:11;7.10;1.00
17146;DHT22;8688;54.444;18.444;2023-10-19T13:18:40;7.10;1.00
17146;DHT22;8688;54.444;18.444;2023-10-19T13:21:09;7.20;1.00
17146;DHT22;8688;54.444;18.444;2023-10-19T13:23:37;7.30;1.00
17146;DHT22;8688;54.444;18.444;2023-10-19T13:26:06;7.50;1.00
17146;DHT22;8688;54.444;18.444;2023-10-19T13:28:44;7.50;1.00
17146;DHT22;8688;54.444;18.444;2023-10-19T13:31:13;7.50;1.00
17146;DHT22;8688;54.444;18.444;2023-10-19T13:33:42;7.50;1.00
17146;DHT22;8688;54.444;18.444;2023-10-19T13:36:12;7.50;1.00
17146;DHT22;8688;54.444;18.444;2023-10-19T13:38:41;7.40;1.00
17146;DHT22;8688;54.444;18.444;2023-10-19T13:41:10;7.30;1.00
17146;DHT22;8688;54.444;18.444;2023-10-19T13:43:38;7.30;1.00
17146;DHT22;8688;54.444;18.444;2023-10-19T13:46:08;7.20;1.00
17146;DHT22;8688;54.444;18.444;2023-10-19T13:48:35;7.20;1.00
17146;DHT22;8688;54.444;18.444;2023-10-19T13:51:05;7.10;1.00
17146;DHT22;8688;54.444;18.444;2023-10-19T13:53:38;7.00;1.00
17146;DHT22;8688;54.444;18.444;2023-10-19T13:56:10;7.00;1.00
17146;DHT22;8688;54.444;18.444;2023-10-19T13:58:38;7.00;1.00
17146;DHT22;8688;54.444;18.444;2023-10-19T14:01:09;6.90;1.00
17146;DHT22;8688;54.444;18.444;2023-10-19T14:03:37;6.90;1.00
17146;DHT22;8688;54.444;18.444;2023-10-19T14:06:11;6.90;1.00
17146;DHT22;8688;54.444;18.444;2023-10-19T14:08:39;6.80;1.00
17146;DHT22;8688;54.444;18.444;2023-10-19T14:11:07;6.80;1.00
17146;DHT22;8688;54.444;18.444;2023-10-19T14:13:35;6.80;1.00
17146;DHT22;8688;54.444;18.444;2023-10-19T14:16:05;6.80;1.00
17146;DHT22;8688;54.444;18.444;2023-10-19T14:18:35;6.80;1.00
17146;DHT22;8688;54.444;18.444;2023-10-19T14:21:11;6.80;1.00
17146;DHT22;8688;54.444;18.444;2023-10-19T14:23:40;6.80;1.00
17146;DHT22;8688;54.444;18.444;2023-10-19T14:26:09;6.80;1.00
17146;DHT22;8688;54.444;18.444;2023-10-19T14:28:37;6.70;1.00
17146;DHT22;8688;54.444;18.444;2023-10-19T14:31:07;6.70;1.00
17146;DHT22;8688;54.444;18.444;2023-10-19T14:33:36;6.70;1.00
17146;DHT22;8688;54.444;18.444;2023-10-19T14:36:05;6.70;1.00
17146;DHT22;8688;54.444;18.444;2023-10-19T14:38:33;6.70;1.00
17146;DHT22;8688;54.444;18.444;2023-10-19T14:41:01;6.70;1.00
17146;DHT22;8688;54.444;18.444;2023-10-19T14:43:29;6.70;1.00
17146;DHT22;8688;54.444;18.444;2023-10-19T14:45:57;6.70;1.00
17146;DHT22;8688;54.444;18.444;2023-10-19T14:48:25;6.70;1.00
17146;DHT22;8688;54.444;18.444;2023-10-19T14:50:56;6.70;1.00
17146;DHT22;8688;54.444;18.444;2023-10-19T14:53:24;6.60;1.00
17146;DHT22;8688;54.444;18.444;2023-10-19T14:55:52;6.60;1.00
17146;DHT22;8688;54.444;18.444;2023-10-19T14:58:19;6.60;1.00
17146;DHT22;8688;54.444;18.444;2023-10-19T15:00:47;6.60;1.00
17146;DHT22;8688;54.444;18.444;2023-10-19T15:03:20;6.60;1.00
17146;DHT22;8688;54.444;18.444;2023-10-19T15:05:51;6.60;1.00
17146;DHT22;8688;54.444;18.444;2023-10-19T15:08:22;6.50;1.00
17146;DHT22;8688;54.444;18.444;2023-10-19T15:10:50;6.50;1.00
17146;DHT22;8688;54.444;18.444;2023-10-19T15:13:20;6.50;1.00
17146;DHT22;8688;54.444;18.444;2023-10-19T15:15:48;6.50;1.00
17146;DHT22;8688;54.444;18.444;2023-10-19T15:18:15;6.50;1.00
17146;DHT22;8688;54.444;18.444;2023-10-19T15:20:44;6.50;1.00
17146;DHT22;8688;54.444;18.444;2023-10-19T15:23:12;6.50;1.00
17146;DHT22;8688;54.444;18.444;2023-10-19T15:25:43;6.60;1.00
17146;DHT22;8688;54.444;18.444;2023-10-19T15:28:11;6.50;99.90
17146;DHT22;8688;54.444;18.444;2023-10-19T15:30:39;6.50;99.90
17146;DHT22;8688;54.444;18.444;2023-10-19T15:33:07;6.50;99.90
17146;DHT22;8688;54.444;18.444;2023-10-19T15:35:35;6.50;99.90
17146;DHT22;8688;54.444;18.444;2023-10-19T15:38:03;6.40;99.90
17146;DHT22;8688;54.444;18.444;2023-10-19T15:40:31;6.40;99.90
17146;DHT22;8688;54.444;18.444;2023-10-19T15:43:02;6.40;99.90
17146;DHT22;8688;54.444;18.444;2023-10-19T15:45:30;6.40;99.90
17146;DHT22;8688;54.444;18.444;2023-10-19T15:48:00;6.40;99.50
17146;DHT22;8688;54.444;18.444;2023-10-19T15:50:28;6.40;99.90
17146;DHT22;8688;54.444;18.444;2023-10-19T15:52:57;6.40;99.90
17146;DHT22;8688;54.444;18.444;2023-10-19T15:55:27;6.40;1.00
17146;DHT22;8688;54.444;18.444;2023-10-19T15:57:56;6.40;1.00
17146;DHT22;8688;54.444;18.444;2023-10-19T16:00:25;6.40;1.00
17146;DHT22;8688;54.444;18.444;2023-10-19T16:02:54;6.40;1.00
17146;DHT22;8688;54.444;18.444;2023-10-19T16:05:22;6.40;1.00
17146;DHT22;8688;54.444;18.444;2023-10-19T16:07:52;6.40;99.90
17146;DHT22;8688;54.444;18.444;2023-10-19T16:10:21;6.40;99.90
17146;DHT22;8688;54.444;18.444;2023-10-19T16:12:50;6.40;99.90
17146;DHT22;8688;54.444;18.444;2023-10-19T16:15:18;6.40;99.90